Time;durP1;ratioP1;P1;durP2;ratioP2;P2;SDS_P1;SDS_P2;PMS_P1;PMS_P2;Temp;Humidity;BMP_temperature;BMP_pressure;BME280_temperature;BME280_humidity;BME280_pressure;Samples;Min_cycle;Max_cycle;Signal;HPM_P1;HPM_P2
2022/11/29 00:02:13;;;;;;;58.75;30.75;;;3.60;99.90;;;1.77;100.00;101455.50;5029401;28;20041;-81
2022/11/29 00:05:19;;;;;;;;;;;;;;;;;;;;;
2022/11/29 00:07:55;;;;;;;;;;;;;;;;;;;;;
2022/11/29 00:10:24;;;;;;;;;;;3.50;99.90;;;1.71;100.00;101450.28;5047179;28;20026;-82
2022/11/29 00:12:52;;;;;;;58.05;30.90;;;3.50;99.90;;;1.73;100.00;101453.75;5032051;28;19917;-81
2022/11/29 00:15:41;;;;;;;59.13;33.40;;;3.50;99.90;;;1.74;100.00;101455.47;5030910;28;20071;-81
2022/11/29 00:18:35;;;;;;;;;;;;;;;;;;;;;
2022/11/29 00:21:20;;;;;;;;;;;;;;;;;;;;;
2022/11/29 00:24:04;;;;;;;66.10;34.28;;;;;;;1.79;100.00;101458.09;5031366;28;20733;-81
2022/11/29 00:26:45;;;;;;;71.40;36.22;;;;;;;1.81;100.00;101454.66;5031095;28;20037;-82
2022/11/29 00:29:23;;;;;;;66.90;34.55;;;;;;;1.79;100.00;101455.47;5029900;28;20053;-81
2022/11/29 00:31:59;;;;;;;66.50;34.70;;;;;;;1.74;100.00;101445.09;5031861;28;20045;-82
2022/11/29 00:34:25;;;;;;;65.32;34.80;;;3.50;99.90;;;1.78;100.00;101456.38;5028408;28;20029;-80
2022/11/29 00:37:03;;;;;;;68.25;35.63;;;3.50;99.90;;;1.77;100.00;101450.31;5030222;28;20523;-81
2022/11/29 00:39:32;;;;;;;71.70;37.08;;;3.50;99.90;;;1.77;100.00;101444.22;5030165;28;20037;-82
2022/11/29 00:42:13;;;;;;;68.03;32.90;;;3.40;99.90;;;1.63;100.00;101442.47;5024642;28;20022;-81
2022/11/29 00:44:53;;;;;;;65.22;33.80;;;;;;;1.54;100.00;101439.03;5047636;28;20637;-82
2022/11/29 00:47:34;;;;;;;53.63;26.70;;;;;;;1.58;100.00;101438.16;5031795;28;20103;-82
2022/11/29 00:50:26;;;;;;;71.00;36.97;;;3.40;99.90;;;1.67;100.00;101440.78;5028211;28;20507;-81
2022/11/29 00:52:52;;;;;;;66.00;33.00;;;3.40;99.90;;;1.67;100.00;101435.56;5032246;28;20083;-81
2022/11/29 00:55:33;;;;;;;72.35;37.33;;;3.40;99.90;;;1.66;100.00;101436.44;5035067;28;20037;-81
2022/11/29 00:58:10;;;;;;;73.10;39.00;;;3.30;99.90;;;1.60;100.00;101436.44;5059853;28;20057;-83
2022/11/29 01:00:43;;;;;;;77.32;38.10;;;3.40;99.90;;;1.60;100.00;101434.69;5045729;28;20068;-82
2022/11/29 01:03:24;;;;;;;62.42;33.55;;;3.40;99.90;;;1.61;100.00;101436.41;5041573;28;20367;-82
2022/11/29 01:06:12;;;;;;;76.47;39.67;;;3.40;99.90;;;1.63;100.00;101432.09;5030634;28;20053;-81
2022/11/29 01:08:48;;;;;;;71.35;37.28;;;;;;;1.61;100.00;101439.03;5027346;28;20406;-81
2022/11/29 01:11:25;;;;;;;73.60;38.72;;;3.40;99.90;;;1.63;100.00;101445.09;5028885;28;20041;-80
2022/11/29 01:14:05;;;;;;;68.05;36.45;;;3.30;99.90;;;1.58;100.00;101438.16;5030609;28;20031;-81
2022/11/29 01:16:34;;;;;;;76.40;39.65;;;3.30;99.90;;;1.59;100.00;101440.75;5029495;28;20128;-81
2022/11/29 01:21:50;;;;;;;58.10;28.88;;;;;;;1.54;100.00;101439.88;5017843;28;20042;-80
2022/11/29 01:24:53;;;;;;;75.70;40.20;;;;;;;1.57;100.00;101439.00;5029178;28;20731;-81
2022/11/29 01:27:31;;;;;;;72.10;34.83;;;;;;;1.55;100.00;101436.41;5030605;28;20397;-81
2022/11/29 01:30:05;;;;;;;75.13;39.65;;;3.30;99.90;;;1.60;100.00;101442.50;5031239;28;20033;-81
2022/11/29 01:32:35;;;;;;;73.60;37.53;;;3.30;99.90;;;1.54;100.00;101441.63;5029426;28;20025;-80
2022/11/29 01:35:01;;;;;;;72.50;39.95;;;3.30;99.90;;;1.62;100.00;101442.47;5031307;28;20036;-81
2022/11/29 01:37:34;;;;;;;80.60;40.20;;;;;;;1.64;100.00;101451.13;5046849;28;20614;-81
2022/11/29 01:40:00;;;;;;;71.55;39.53;;;;;;;1.68;100.00;101459.81;5030061;28;20031;-80
2022/11/29 01:42:40;;;;;;;65.70;33.88;;;3.30;99.90;;;1.58;100.00;101440.75;5027290;28;20036;-81
2022/11/29 01:45:24;;;;;;;70.18;38.13;;;3.30;99.90;;;1.58;100.00;101459.78;5045242;28;20037;-82
2022/11/29 01:48:03;;;;;;;77.13;40.60;;;3.30;99.90;;;1.55;100.00;101454.56;5031382;28;20033;-81
2022/11/29 01:50:41;;;;;;;84.47;42.85;;;3.30;99.90;;;1.53;100.00;101450.25;5030359;28;20029;-81
2022/11/29 01:53:22;;;;;;;83.20;42.25;;;3.30;99.90;;;1.53;100.00;101445.91;5029301;28;20037;-81
2022/11/29 01:56:03;;;;;;;80.55;41.92;;;3.40;99.90;;;1.63;100.00;101445.09;5044088;28;20113;-81
2022/11/29 01:58:43;;;;;;;81.00;41.78;;;3.30;99.90;;;1.56;100.00;101445.09;5045935;28;20033;-81
2022/11/29 02:01:19;;;;;;;77.63;42.40;;;3.40;99.90;;;1.65;100.00;101450.28;5029551;28;20406;-81
2022/11/29 02:03:47;;;;;;;85.68;44.00;;;3.30;99.90;;;1.63;100.00;101452.00;5045152;28;20033;-81
2022/11/29 02:06:23;;;;;;;91.68;46.08;;;3.40;99.90;;;1.69;100.00;101446.84;5009874;28;20054;-80
2022/11/29 02:08:52;;;;;;;88.82;46.03;;;3.30;99.90;;;1.66;100.00;101449.41;5025783;28;20037;-80
2022/11/29 02:12:20;;;;;;;88.60;44.63;;;3.40;99.90;;;1.75;100.00;101452.03;5038970;28;20037;-81
2022/11/29 02:15:32;;;;;;;87.82;43.35;;;3.40;99.90;;;1.68;100.00;101449.41;5013789;28;20041;-80
2022/11/29 02:18:41;;;;;;;88.70;44.38;;;3.40;99.90;;;1.70;100.00;101450.28;5030462;28;20036;-81
2022/11/29 02:21:41;;;;;;;86.30;45.17;;;;;;;1.68;100.00;101455.47;5028601;28;20037;-81
2022/11/29 02:24:51;;;;;;;91.45;43.15;;;3.40;99.90;;;1.61;100.00;101461.53;5029748;28;20084;-81
2022/11/29 02:28:04;;;;;;;89.60;45.25;;;3.40;99.90;;;1.69;100.00;101446.84;5030427;28;20037;-81
2022/11/29 02:31:24;;;;;;;91.82;47.50;;;3.40;99.90;;;1.66;100.00;101456.34;5030144;28;20042;-80
2022/11/29 02:33:59;;;;;;;85.57;43.58;;;3.40;99.90;;;1.61;100.00;101453.72;5044826;28;20084;-81
2022/11/29 02:36:36;;;;;;;89.53;47.20;;;3.40;99.90;;;1.70;100.00;101461.53;5044128;28;20034;-80
2022/11/29 02:39:52;;;;;;;90.53;47.20;;;3.40;99.90;;;1.74;100.00;101460.69;5029208;28;20444;-82
2022/11/29 02:42:29;;;;;;;90.45;47.35;;;3.40;99.90;;;1.73;100.00;101458.97;5033038;28;20108;-81
2022/11/29 02:45:30;;;;;;;90.93;46.83;;;3.40;99.90;;;1.83;100.00;101471.06;5032410;28;20038;-82
2022/11/29 02:48:14;;;;;;;93.22;46.25;;;3.50;99.90;;;1.84;100.00;101472.81;5034933;28;20067;-80
2022/11/29 02:51:14;;;;;;;87.35;43.83;;;3.40;99.90;;;1.71;100.00;101472.81;5032475;28;20025;-81
2022/11/29 02:54:05;;;;;;;86.80;45.38;;;3.50;99.90;;;1.78;100.00;101471.94;5046178;28;20037;-81
2022/11/29 02:56:57;;;;;;;97.75;49.13;;;3.50;99.90;;;1.81;100.00;101471.94;5032954;28;20026;-80
2022/11/29 02:59:58;;;;;;;86.97;46.00;;;3.50;99.90;;;1.83;100.00;101480.59;5031132;28;20432;-80
2022/11/29 03:02:51;;;;;;;90.88;46.80;;;3.50;99.90;;;1.77;100.00;101475.38;5048255;28;20600;-79
2022/11/29 03:05:51;;;;;;;97.10;48.22;;;3.50;99.90;;;1.83;100.00;101473.66;5032453;28;20442;-79
2022/11/29 03:08:51;;;;;;;87.57;47.55;;;3.50;99.90;;;1.87;100.00;101482.34;5032840;28;20029;-80
2022/11/29 03:11:40;;;;;;;92.47;47.80;;;3.50;99.90;;;1.90;100.00;101481.47;5031648;28;20401;-80
2022/11/29 03:15:24;;;;;;;94.43;48.67;;;3.60;99.90;;;1.87;100.00;101471.94;5031401;28;20112;-79
2022/11/29 03:18:22;;;;;;;90.70;44.13;;;3.60;99.90;;;1.88;100.00;101478.00;5008363;28;20046;-80
2022/11/29 03:21:35;;;;;;;95.70;49.03;;;3.60;99.90;;;1.90;100.00;101471.09;5022695;28;20041;-80
2022/11/29 03:24:31;;;;;;;95.00;46.25;;;;;;;1.78;100.00;101470.22;4964917;28;20045;-80
2022/11/29 03:28:04;;;;;;;98.63;48.03;;;3.50;99.90;;;1.77;100.00;101465.00;4962447;28;20149;-80
2022/11/29 03:31:28;;;;;;;92.70;47.28;;;3.50;99.90;;;1.80;100.00;101475.41;4905364;29;20044;-81
2022/11/29 03:34:35;;;;;;;94.68;47.75;;;3.50;99.90;;;1.78;100.00;101475.41;4920228;29;20043;-79
2022/11/29 03:37:33;;;;;;;99.32;50.17;;;;;;;1.82;100.00;101481.47;4952320;28;20075;-80
2022/11/29 03:40:34;;;;;;;94.47;47.38;;;3.60;99.90;;;1.88;100.00;101484.09;4953858;28;20494;-80
2022/11/29 03:43:43;;;;;;;81.65;38.92;;;;;;;1.72;100.00;101488.38;5036194;28;21282;-80
2022/11/29 03:46:41;;;;;;;98.35;48.60;;;;;;;1.70;100.00;101481.44;5031447;28;20033;-80
2022/11/29 03:49:50;;;;;;;97.63;48.60;;;;;;;1.74;100.00;101485.78;5047527;28;20537;-81
2022/11/29 03:52:44;;;;;;;94.07;48.88;;;3.40;99.90;;;1.75;100.00;101493.59;5046556;28;20041;-80
2022/11/29 03:56:01;;;;;;;85.63;39.95;;;3.50;99.90;;;1.70;100.00;101487.50;5032459;28;20673;-80
2022/11/29 03:59:17;;;;;;;89.57;45.58;;;3.40;99.90;;;1.69;100.00;101492.72;4981218;28;20384;-80
2022/11/29 04:02:21;;;;;;;96.05;47.33;;;;;;;1.70;100.00;101494.44;4981831;28;20118;-80
2022/11/29 04:05:41;;;;;;;98.57;47.35;;;3.40;99.90;;;1.72;100.00;101490.09;4982762;28;20046;-80
2022/11/29 04:09:03;;;;;;;90.05;43.17;;;3.50;99.90;;;1.66;100.00;101496.13;4994419;28;20595;-80
2022/11/29 04:12:29;;;;;;;96.07;48.70;;;3.40;99.90;;;1.70;100.00;101510.88;5044250;28;20048;-80
2022/11/29 04:16:04;;;;;;;101.97;48.90;;;3.50;99.90;;;1.72;100.00;101500.50;5028213;28;20592;-79
2022/11/29 04:19:10;;;;;;;99.88;50.47;;;3.40;99.90;;;1.71;100.00;101515.22;5030799;28;20040;-80
2022/11/29 04:21:54;;;;;;;96.43;47.85;;;3.40;99.90;;;1.75;100.00;101508.28;5030361;28;20104;-80
2022/11/29 04:24:53;;;;;;;93.43;47.97;;;3.40;99.90;;;1.67;100.00;101505.69;5032332;28;20128;-81
2022/11/29 04:28:14;;;;;;;96.32;50.55;;;3.40;99.90;;;1.73;100.00;101510.88;5031554;28;20047;-80
2022/11/29 04:31:01;;;;;;;100.13;49.28;;;;;;;1.67;100.00;101517.78;5017903;28;20029;-81
2022/11/29 04:34:24;;;;;;;97.47;45.47;;;3.40;99.90;;;1.56;100.00;101512.56;5030379;28;20535;-80
2022/11/29 04:37:34;;;;;;;107.13;49.58;;;3.30;99.90;;;1.65;100.00;101520.38;5057578;28;20053;-80
2022/11/29 04:40:15;;;;;;;88.22;42.83;;;3.30;99.90;;;1.49;100.00;101516.00;5044647;28;20056;-80
2022/11/29 04:43:48;;;;;;;70.18;29.02;;;3.30;99.90;;;1.51;100.00;101511.66;5052646;28;20071;-80
2022/11/29 04:46:44;;;;;;;101.97;51.67;;;3.30;99.90;;;1.56;100.00;101510.84;5030390;28;20087;-80
2022/11/29 04:49:50;;;;;;;101.95;50.20;;;3.30;99.90;;;1.57;100.00;101511.69;5031581;28;20055;-81
2022/11/29 04:52:34;;;;;;;100.68;49.20;;;3.30;99.90;;;1.67;100.00;101516.06;5029313;28;20041;-80
2022/11/29 04:56:32;;;;;;;75.15;32.40;;;3.40;99.90;;;1.61;100.00;101510.84;5032265;28;20060;-80
2022/11/29 04:59:25;;;;;;;108.43;51.40;;;3.30;99.90;;;1.64;100.00;101516.03;4953198;28;20047;-80
2022/11/29 05:02:42;;;;;;;104.95;50.30;;;3.40;99.90;;;1.64;100.00;101513.44;4964418;28;20053;-80
2022/11/29 05:06:24;;;;;;;105.72;50.92;;;3.40;99.90;;;1.58;100.00;101524.69;5046731;28;20033;-81
2022/11/29 05:09:42;;;;;;;98.20;46.30;;;3.40;99.90;;;1.67;100.00;101523.00;4961597;28;20069;-80
2022/11/29 05:13:04;;;;;;;;;;;3.30;99.90;;;1.46;100.00;101532.41;4966379;28;20041;-80
2022/11/29 05:16:32;;;;;;;94.68;48.13;;;3.30;99.90;;;1.56;100.00;101531.59;4990281;28;20390;-80
2022/11/29 05:19:25;;;;;;;97.47;48.35;;;3.30;99.90;;;1.57;100.00;101535.91;4989553;28;20157;-80
2022/11/29 05:22:39;;;;;;;98.13;45.40;;;3.30;99.90;;;1.62;100.00;101538.53;4989469;28;20038;-80
2022/11/29 05:26:14;;;;;;;105.70;50.38;;;3.30;99.90;;;1.59;100.00;101536.78;5012887;28;20484;-80
2022/11/29 05:29:24;;;;;;;101.55;50.47;;;3.30;99.90;;;1.65;100.00;101543.75;5031101;28;20032;-80
2022/11/29 05:32:33;;;;;;;107.50;50.22;;;3.40;99.90;;;1.64;100.00;101542.00;5043260;28;20112;-80
2022/11/29 05:35:37;;;;;;;;;;;;;;;;;;;;;
2022/11/29 05:39:00;;;;;;;112.20;50.65;;;3.40;99.90;;;1.70;100.00;101544.63;5030197;28;20537;-80
2022/11/29 05:42:03;;;;;;;90.78;42.05;;;3.30;99.90;;;1.55;100.00;101541.97;5017613;28;20061;-80
2022/11/29 05:45:03;;;;;;;99.40;48.25;;;3.40;99.90;;;1.64;100.00;101552.38;5014043;28;20021;-81
2022/11/29 05:48:16;;;;;;;96.18;44.65;;;3.40;99.90;;;1.60;100.00;101545.47;5046067;28;20030;-81
2022/11/29 05:51:24;;;;;;;102.85;47.40;;;3.30;99.90;;;1.61;100.00;101549.78;5027788;28;20061;-80
2022/11/29 05:53:53;;;;;;;104.15;49.83;;;3.40;99.90;;;1.71;100.00;101551.56;5029653;28;20494;-81
2022/11/29 05:56:34;;;;;;;95.95;45.50;;;;;;;1.66;100.00;101553.25;5045401;28;20512;-81
2022/11/29 05:59:27;;;;;;;101.35;50.03;;;3.40;99.90;;;1.67;100.00;101555.00;5030650;28;20040;-81
2022/11/29 06:02:43;;;;;;;98.88;46.97;;;3.40;99.90;;;1.73;100.00;101564.53;5027735;28;20033;-80
2022/11/29 06:05:48;;;;;;;97.25;48.53;;;3.40;99.90;;;1.73;100.00;101562.81;5030170;28;20033;-81
2022/11/29 06:08:23;;;;;;;94.47;44.60;;;3.40;99.90;;;1.63;100.00;101567.09;5043921;28;20492;-80
2022/11/29 06:11:10;;;;;;;99.82;47.15;;;3.40;99.90;;;1.68;100.00;101564.50;5043303;23;20460;-81
2022/11/29 06:13:56;;;;;;;;;;;3.40;99.90;;;1.69;100.00;101571.47;5027848;28;20069;-80
2022/11/29 06:16:48;;;;;;;94.40;45.58;;;3.40;99.90;;;1.67;100.00;101572.31;5052028;28;20396;-80
2022/11/29 06:19:55;;;;;;;94.45;45.65;;;3.40;99.90;;;1.70;100.00;101570.56;5049731;28;20114;-79
2022/11/29 06:22:54;;;;;;;94.28;44.10;;;3.40;99.90;;;1.68;100.00;101576.63;5065581;28;20100;-80
2022/11/29 06:26:06;;;;;;;86.15;39.90;;;3.50;99.90;;;1.79;100.00;101578.41;5047773;28;20497;-81
2022/11/29 06:29:11;;;;;;;88.15;41.55;;;3.50;99.90;;;1.77;100.00;101590.53;5011191;28;20077;-80
2022/11/29 06:31:45;;;;;;;98.40;45.80;;;3.50;99.90;;;1.85;100.00;101587.94;5046267;28;20032;-81
2022/11/29 06:34:52;;;;;;;94.47;46.72;;;3.50;99.90;;;1.91;100.00;101592.31;5048974;28;20097;-81
2022/11/29 06:37:35;;;;;;;75.82;36.33;;;3.60;99.90;;;1.90;100.00;101590.56;5026479;28;20045;-80
2022/11/29 06:40:02;;;;;;;94.18;45.38;;;3.60;99.90;;;1.95;100.00;101589.72;5046703;28;20043;-81
2022/11/29 06:42:28;;;;;;;89.70;46.08;;;3.60;99.90;;;1.95;100.00;101605.28;5065870;28;20408;-79
2022/11/29 06:44:57;;;;;;;91.97;45.25;;;3.60;99.90;;;1.99;100.00;101601.00;5046748;28;20114;-80
2022/11/29 06:47:48;;;;;;;88.40;44.78;;;3.70;99.90;;;2.00;100.00;101607.91;5050380;28;20035;-80
2022/11/29 06:53:23;;;;;;;91.18;43.70;;;3.70;99.90;;;2.13;100.00;101612.25;5081409;22;20577;-79
2022/11/29 06:56:19;;;;;;;97.20;46.70;;;3.80;99.90;;;2.19;100.00;101611.44;5064717;28;20158;-81
2022/11/29 06:59:25;;;;;;;85.13;42.88;;;3.80;99.90;;;2.20;100.00;101620.94;5047445;28;20448;-80
2022/11/29 07:02:30;;;;;;;85.03;43.40;;;3.80;99.90;;;2.13;100.00;101622.66;5036294;28;20044;-81
2022/11/29 07:05:16;;;;;;;88.30;44.15;;;3.80;99.90;;;2.06;100.00;101615.72;5030607;28;20032;-81
2022/11/29 07:07:42;;;;;;;76.72;37.80;;;3.80;99.90;;;2.08;100.00;101620.94;5026424;28;20037;-81
2022/11/29 07:12:47;;;;;;;86.80;43.85;;;3.90;99.90;;;2.24;100.00;101620.09;5074324;23;20063;-80
2022/11/29 07:15:17;;;;;;;86.28;39.13;;;3.90;99.90;;;2.22;100.00;101617.47;5031132;28;20040;-79
2022/11/29 07:17:55;;;;;;;83.53;41.10;;;3.90;99.90;;;2.22;100.00;101625.28;5045744;28;20029;-79
2022/11/29 07:21:01;;;;;;;54.58;27.13;;;3.90;99.90;;;2.19;100.00;101621.81;5046643;28;20020;-81
2022/11/29 07:24:01;;;;;;;87.70;43.92;;;3.90;99.90;;;2.29;100.00;101641.78;5048837;28;20412;-80
2022/11/29 07:26:56;;;;;;;79.50;41.97;;;4.00;99.90;;;2.34;100.00;101639.19;5059860;28;20497;-81
2022/11/29 07:29:34;;;;;;;72.03;33.53;;;3.90;99.90;;;2.21;100.00;101633.09;5046498;28;21167;-81
2022/11/29 07:32:29;;;;;;;65.85;30.20;;;3.90;99.90;;;2.21;100.00;101627.88;5071089;23;20094;-80
2022/11/29 07:35:43;;;;;;;78.68;40.90;;;4.00;99.90;;;2.31;100.00;101628.75;5082889;28;20031;-79
2022/11/29 07:38:52;;;;;;;80.43;40.75;;;4.00;99.90;;;2.31;100.00;101632.25;5082339;28;20033;-82
2022/11/29 07:42:23;;;;;;;82.43;43.22;;;4.00;99.90;;;2.36;100.00;101642.66;5080223;28;20035;-80
2022/11/29 07:45:46;;;;;;;;;;;;;;;;;;;;;
2022/11/29 07:48:15;;;;;;;67.72;37.25;;;;;;;2.33;100.00;101647.81;5056254;28;20052;-80
2022/11/29 07:50:41;;;;;;;77.88;40.63;;;4.10;99.90;;;2.43;100.00;101649.59;5089068;22;20031;-81
2022/11/29 07:53:18;;;;;;;83.28;40.70;;;4.10;99.90;;;2.45;100.00;101650.47;5063779;28;20035;-80
2022/11/29 07:55:44;;;;;;;78.75;40.38;;;4.10;99.90;;;2.42;100.00;101648.72;5028305;28;20032;-80
2022/11/29 07:58:12;;;;;;;66.85;33.90;;;4.20;99.90;;;2.47;100.00;101643.53;5049614;28;20444;-80
2022/11/29 08:00:46;;;;;;;55.40;25.92;;;4.10;99.90;;;2.35;100.00;101636.56;5043965;28;20029;-81
2022/11/29 08:03:12;;;;;;;79.22;39.72;;;4.20;99.90;;;2.48;100.00;101645.25;5060954;28;20029;-80
2022/11/29 08:05:39;;;;;;;79.88;39.35;;;4.20;99.90;;;2.53;100.00;101651.34;5063110;28;20036;-81
2022/11/29 08:08:13;;;;;;;77.05;39.30;;;4.20;99.90;;;2.53;100.00;101656.53;5042646;28;20040;-80
2022/11/29 08:10:39;;;;;;;78.22;40.65;;;4.20;99.90;;;2.50;100.00;101648.72;5046977;22;20041;-80
2022/11/29 08:13:08;;;;;;;73.78;40.05;;;4.30;99.90;;;2.60;100.00;101653.06;5021900;28;20043;-80
2022/11/29 08:15:47;;;;;;;74.72;39.30;;;4.30;99.90;;;2.66;100.00;101653.09;5039511;28;20029;-80
2022/11/29 08:18:25;;;;;;;79.60;40.58;;;4.30;99.90;;;2.67;100.00;101659.16;5024591;28;20124;-80
2022/11/29 08:20:51;;;;;;;81.15;41.30;;;4.30;99.90;;;2.72;100.00;101664.34;5020609;28;20056;-80
2022/11/29 08:23:27;;;;;;;72.88;39.63;;;4.40;99.90;;;2.67;100.00;101657.41;5002189;28;20041;-80
2022/11/29 08:26:05;;;;;;;75.93;38.83;;;4.30;99.90;;;2.60;100.00;101660.00;5019039;28;20029;-80
2022/11/29 08:28:31;;;;;;;72.88;37.67;;;4.40;99.90;;;2.61;100.00;101657.44;5021420;28;20060;-81
2022/11/29 08:31:26;;;;;;;76.72;40.78;;;4.40;99.90;;;2.77;100.00;101660.03;5024203;23;20509;-79
2022/11/29 08:33:55;;;;;;;81.95;40.95;;;4.40;99.90;;;2.82;100.00;101666.09;5018182;28;20064;-80
2022/11/29 08:36:21;;;;;;;72.78;36.25;;;4.40;99.90;;;2.80;100.00;101668.69;5053091;28;20025;-82
2022/11/29 08:38:54;;;;;;;80.72;39.33;;;4.50;99.90;;;2.79;100.00;101672.16;5068567;28;20500;-80
2022/11/29 08:41:20;;;;;;;86.00;41.78;;;4.50;99.90;;;2.86;100.00;101667.84;5068427;28;20041;-80
2022/11/29 08:43:46;;;;;;;74.10;37.58;;;4.50;99.90;;;2.79;100.00;101661.75;5060553;28;20084;-79
2022/11/29 08:46:13;;;;;;;79.10;40.15;;;4.50;99.90;;;2.87;100.00;101672.16;5061494;28;20806;-80
2022/11/29 08:48:49;;;;;;;79.00;42.33;;;4.50;99.90;;;2.91;100.00;101678.25;5057695;28;20035;-80
2022/11/29 08:51:15;;;;;;;80.15;42.58;;;4.60;99.90;;;2.94;100.00;101681.72;5084051;22;20043;-80
2022/11/29 08:53:50;;;;;;;77.65;40.17;;;4.50;99.90;;;2.94;100.00;101683.44;5043724;28;20139;-81
2022/11/29 08:56:20;;;;;;;81.15;40.88;;;4.60;99.90;;;2.92;100.00;101687.78;5054361;28;20056;-78
2022/11/29 08:58:46;;;;;;;54.13;27.08;;;4.60;99.90;;;2.86;100.00;101686.03;5049245;28;20097;-80
2022/11/29 09:01:20;;;;;;;68.38;36.20;;;4.60;99.90;;;2.95;100.00;101699.06;5044367;28;20558;-80
2022/11/29 09:04:03;;;;;;;83.45;42.15;;;4.60;99.90;;;2.95;100.00;101691.25;5060620;28;20094;-81
2022/11/29 09:06:41;;;;;;;83.65;43.90;;;4.60;99.90;;;2.95;100.00;101691.25;5062256;28;20032;-81
2022/11/29 09:09:21;;;;;;;66.85;35.33;;;4.60;99.90;;;2.83;100.00;101692.13;5044825;28;20032;-80
2022/11/29 09:12:09;;;;;;;;;;;;;;;;;;;;;
2022/11/29 09:14:53;;;;;;;83.78;42.72;;;4.70;99.90;;;3.04;100.00;101706.00;5045399;28;20039;-81
2022/11/29 09:17:21;;;;;;;78.32;41.38;;;4.60;99.90;;;2.96;100.00;101706.00;5047332;28;20036;-82
2022/11/29 09:22:43;;;;;;;82.85;40.65;;;4.70;99.90;;;3.05;100.00;101716.41;5014510;28;20030;-79
2022/11/29 09:25:35;;;;;;;73.45;37.65;;;4.70;99.90;;;3.02;100.00;101712.94;5019036;28;20041;-81
2022/11/29 09:28:02;;;;;;;78.93;37.50;;;4.60;99.90;;;2.90;100.00;101716.41;5019702;28;20426;-80
2022/11/29 09:30:38;;;;;;;69.82;34.90;;;4.60;99.90;;;2.92;100.00;101717.28;5022024;28;20050;-81
2022/11/29 09:33:04;;;;;;;;;;;4.60;99.90;;;2.94;100.00;101725.94;5037993;28;20026;-80
2022/11/29 09:35:33;;;;;;;75.63;38.53;;;4.60;99.90;;;3.06;100.00;101725.06;5023979;28;19917;-80
2022/11/29 09:38:04;;;;;;;77.20;37.33;;;;;;;3.04;100.00;101724.19;5022474;28;20328;-82
2022/11/29 09:40:52;;;;;;;78.20;40.55;;;4.70;99.90;;;3.13;100.00;101729.41;5022345;28;20464;-81
2022/11/29 09:43:32;;;;;;;78.70;38.67;;;4.80;99.90;;;3.13;100.00;101729.41;5020098;28;20462;-81
2022/11/29 09:46:29;;;;;;;76.97;39.97;;;4.80;99.90;;;3.02;100.00;101723.34;5019261;28;20045;-81
2022/11/29 09:49:07;;;;;;;65.45;30.13;;;4.70;99.90;;;3.01;100.00;101727.69;4996521;28;20030;-80
2022/11/29 09:52:45;;;;;;;70.40;36.60;;;4.80;99.90;;;3.18;100.00;101732.03;5064627;23;20121;-79
2022/11/29 09:56:33;;;;;;;82.40;39.85;;;4.80;99.90;;;3.12;100.00;101721.63;5061732;28;20111;-80
2022/11/29 09:59:46;;;;;;;53.00;26.77;;;4.80;99.90;;;2.93;100.00;101721.59;4969429;28;20397;-81
2022/11/29 10:02:44;;;;;;;81.72;41.33;;;;;;;2.98;100.00;101725.09;4943364;28;20035;-80
2022/11/29 10:06:24;;;;;;;57.38;27.75;;;4.80;99.90;;;3.06;100.00;101728.53;5027171;28;20041;-82
2022/11/29 10:09:23;;;;;;;74.15;39.40;;;4.70;99.90;;;3.02;100.00;101724.22;5004952;28;20338;-79
2022/11/29 10:13:02;;;;;;;77.90;41.08;;;4.80;99.90;;;3.15;100.00;101725.06;5019454;28;20139;-81
2022/11/29 10:15:46;;;;;;;;;;;4.80;99.90;;;3.02;100.00;101724.22;4949232;28;20044;-81
2022/11/29 10:19:10;;;;;;;74.18;39.15;;;4.80;99.90;;;3.04;100.00;101725.06;4950140;28;19914;-80
2022/11/29 10:21:52;;;;;;;81.65;42.25;;;4.80;99.90;;;3.25;100.00;101731.16;4928011;29;20043;-79
2022/11/29 10:25:05;;;;;;;79.38;43.13;;;4.80;99.90;;;3.16;99.86;101733.75;5019328;28;20105;-79
2022/11/29 10:27:47;;;;;;;73.97;35.72;;;4.90;99.90;;;3.19;99.78;101734.63;5030160;28;20045;-80
2022/11/29 10:33:05;;;;;;;84.18;39.47;;;4.80;99.90;;;3.21;99.33;101734.63;5063254;22;20106;-80
2022/11/29 10:36:03;;;;;;;79.72;42.30;;;4.90;99.90;;;3.33;99.73;101731.16;5042496;28;20025;-80
2022/11/29 10:39:01;;;;;;;61.38;29.23;;;;;;;3.32;99.21;101732.88;5044910;28;20497;-80
2022/11/29 10:41:36;;;;;;;80.97;42.05;;;;;;;3.47;98.88;101740.66;5047621;28;20051;-81
2022/11/29 10:47:15;;;;;;;74.60;40.55;;;5.00;99.90;;;3.38;98.39;101727.66;5008977;28;20064;-80
2022/11/29 10:49:55;;;;;;;79.68;41.47;;;5.10;99.90;;;3.48;98.35;101737.22;5007937;28;20386;-81
2022/11/29 10:53:05;;;;;;;71.97;38.85;;;5.00;99.90;;;3.32;97.87;101732.00;5055746;23;20039;-83
2022/11/29 10:56:40;;;;;;;;;;;;;;;;;;;;;
2022/11/29 11:00:05;;;;;;;69.95;34.75;;;5.00;99.90;;;3.29;98.56;101740.69;5065363;28;20821;-81
2022/11/29 11:02:45;;;;;;;83.55;41.35;;;5.00;99.90;;;3.37;98.38;101743.28;5032898;28;20044;-81
2022/11/29 11:05:26;;;;;;;79.13;41.95;;;;;;;3.45;97.86;101742.41;5080157;28;20036;-82
2022/11/29 11:08:36;;;;;;;76.05;41.13;;;5.00;99.90;;;3.39;98.06;101738.94;5066521;28;20033;-82
2022/11/29 11:11:26;;;;;;;70.32;37.08;;;5.10;99.90;;;3.35;97.60;101743.31;5059538;22;20531;-82
2022/11/29 11:14:54;;;;;;;75.32;40.15;;;5.00;99.90;;;3.37;97.81;101733.75;5061184;28;20053;-81
2022/11/29 11:18:04;;;;;;;69.88;37.25;;;5.10;99.90;;;3.51;97.78;101738.94;5033792;28;20059;-81
2022/11/29 11:21:23;;;;;;;77.47;40.33;;;5.10;99.90;;;3.55;97.20;101745.03;5015323;28;20036;-82
2022/11/29 11:24:29;;;;;;;83.05;44.35;;;5.20;99.90;;;3.65;97.20;101741.50;5058049;28;20038;-81
2022/11/29 11:26:59;;;;;;;72.60;38.30;;;5.20;99.90;;;3.58;96.98;101742.41;5046586;28;20087;-81
2022/11/29 11:29:43;;;;;;;77.97;39.15;;;5.20;99.90;;;3.58;97.37;101737.19;5043010;28;20120;-80
2022/11/29 11:32:30;;;;;;;74.97;38.22;;;5.30;99.90;;;3.68;96.96;101737.19;5070350;23;20033;-81
2022/11/29 11:35:12;;;;;;;78.35;39.85;;;5.20;99.90;;;3.60;97.05;101738.06;5060677;28;20045;-81
2022/11/29 11:38:23;;;;;;;72.80;37.13;;;5.20;99.90;;;3.65;96.71;101733.69;5046504;28;20107;-82
2022/11/29 11:45:35;;;;;;;78.13;40.95;;;5.40;99.90;;;3.90;96.24;101734.53;4943992;28;20097;-82
2022/11/29 11:48:15;;;;;;;82.10;41.78;;;5.50;99.90;;;4.09;96.09;101741.41;4959551;28;20054;-82
2022/11/29 11:50:58;;;;;;;78.47;40.70;;;5.50;99.90;;;4.15;95.13;101745.75;4950615;28;20094;-81
2022/11/29 11:54:06;;;;;;;70.07;34.35;;;;;;;3.97;94.43;101738.84;5029357;28;20753;-81
2022/11/29 11:57:05;;;;;;;72.00;40.53;;;;;;;3.95;93.72;101747.53;5058113;28;20037;-81
2022/11/29 12:00:05;;;;;;;76.53;41.97;;;5.60;99.90;;;3.98;93.90;101744.94;5061852;28;20095;-82
2022/11/29 12:03:14;;;;;;;72.95;37.42;;;5.60;99.90;;;4.07;93.96;101745.75;5050922;28;20037;-82
2022/11/29 12:06:13;;;;;;;78.50;42.70;;;5.70;99.90;;;4.20;93.71;101761.38;5041720;28;20092;-81
2022/11/29 12:09:25;;;;;;;80.88;43.70;;;5.70;99.90;;;4.12;93.24;101750.94;5057211;28;20051;-82
2022/11/29 12:12:34;;;;;;;79.53;40.92;;;5.60;99.90;;;3.93;93.29;101767.50;5055333;28;20473;-81
2022/11/29 12:15:45;;;;;;;74.35;40.28;;;5.60;99.90;;;3.88;93.30;101757.09;5046340;28;20408;-82
2022/11/29 12:18:53;;;;;;;74.45;40.97;;;5.50;99.90;;;4.01;93.88;101769.22;5058346;28;20106;-82
2022/11/29 12:21:52;;;;;;;79.63;41.70;;;5.60;99.90;;;3.97;93.86;101761.44;5099562;23;20972;-82
2022/11/29 12:25:02;;;;;;;61.35;31.45;;;5.60;99.90;;;3.87;94.06;101773.63;5040637;28;20125;-82
2022/11/29 12:27:46;;;;;;;77.65;41.28;;;5.60;99.90;;;3.94;93.87;101769.25;5026197;28;20079;-82
2022/11/29 12:34:43;;;;;;;71.25;31.77;;;;;;;3.75;93.65;101761.47;5009472;28;20120;-81
2022/11/29 12:38:22;;;;;;;;;;;;;;;;;;;;;
2022/11/29 12:42:04;;;;;;;;;;;;;;;;;;;;;
2022/11/29 12:45:41;;;;;;;78.72;41.20;;;5.40;99.90;;;3.82;94.28;101781.47;5022861;28;20072;-81